createdAt,value
2023-01-31T00:00:29.000Z,4
2023-01-31T00:04:02.000Z,4.1
2023-01-31T00:07:35.000Z,4.7
2023-01-31T00:11:08.000Z,4.8
2023-01-31T00:14:41.000Z,4.7
2023-01-31T00:18:13.000Z,5
2023-01-31T00:21:46.000Z,4.5
2023-01-31T00:25:18.000Z,5.3
2023-01-31T00:28:51.000Z,5.6
2023-01-31T00:32:24.000Z,5.6
2023-01-31T00:35:56.000Z,5.5
2023-01-31T00:38:47.000Z,5.7
2023-01-31T00:42:20.000Z,5.5
2023-01-31T00:45:52.000Z,5.2
2023-01-31T00:49:25.000Z,5.5
2023-01-31T00:52:58.000Z,5
2023-01-31T00:56:30.000Z,5.1
2023-01-31T01:00:03.000Z,5.2
2023-01-31T01:03:36.000Z,5.6
2023-01-31T01:07:09.000Z,5.4
2023-01-31T01:10:41.000Z,5.8
2023-01-31T01:14:14.000Z,5.5
2023-01-31T01:17:05.000Z,5.7
2023-01-31T01:20:38.000Z,5
2023-01-31T01:24:11.000Z,5.6
2023-01-31T01:27:43.000Z,5.5
2023-01-31T01:31:16.000Z,4.8
2023-01-31T01:34:49.000Z,5.8
2023-01-31T01:38:21.000Z,5.8
2023-01-31T01:41:54.000Z,5.7
2023-01-31T01:45:27.000Z,5.1
2023-01-31T01:48:59.000Z,5.4
2023-01-31T01:52:32.000Z,5.3
2023-01-31T01:55:23.000Z,5.5
2023-01-31T01:58:56.000Z,4.6
2023-01-31T02:02:29.000Z,5.6
2023-01-31T02:06:02.000Z,5.8
2023-01-31T02:09:35.000Z,6.2
2023-01-31T02:13:07.000Z,5.3
2023-01-31T02:16:40.000Z,4.3
2023-01-31T02:20:13.000Z,4.4
2023-01-31T02:23:45.000Z,5.1
2023-01-31T02:27:18.000Z,4.6
2023-01-31T02:30:51.000Z,5.3
2023-01-31T02:33:43.000Z,5.3
2023-01-31T02:37:15.000Z,5.1
2023-01-31T02:40:48.000Z,5.3
2023-01-31T02:44:21.000Z,5.3
2023-01-31T02:47:54.000Z,5.1
2023-01-31T02:51:26.000Z,5.6
2023-01-31T02:54:59.000Z,4.8
2023-01-31T02:58:32.000Z,5.3
2023-01-31T03:02:04.000Z,4.8
2023-01-31T03:05:37.000Z,4.9
2023-01-31T03:09:10.000Z,5.4
2023-01-31T03:12:01.000Z,5.3
2023-01-31T03:15:33.000Z,5.2
2023-01-31T03:19:06.000Z,5.2
2023-01-31T03:22:39.000Z,4.9
2023-01-31T03:26:11.000Z,5
2023-01-31T03:29:44.000Z,4.9
2023-01-31T03:33:17.000Z,4.8
2023-01-31T03:36:50.000Z,5.3
2023-01-31T03:40:22.000Z,4.7
2023-01-31T03:43:55.000Z,5.1
2023-01-31T03:47:27.000Z,5.1
2023-01-31T03:50:19.000Z,4.7
2023-01-31T03:53:52.000Z,5.1
2023-01-31T03:57:24.000Z,5
2023-01-31T04:00:57.000Z,5.2
2023-01-31T04:04:31.000Z,5.3
2023-01-31T04:08:03.000Z,5.1
2023-01-31T04:11:37.000Z,5.4
2023-01-31T04:15:10.000Z,5
2023-01-31T04:18:43.000Z,5
2023-01-31T04:22:16.000Z,5.1
2023-01-31T04:25:48.000Z,5.9
2023-01-31T04:28:40.000Z,5.1
2023-01-31T04:32:13.000Z,5.9
2023-01-31T04:35:45.000Z,4.9
2023-01-31T04:39:18.000Z,5.3
2023-01-31T04:42:50.000Z,4.8
2023-01-31T04:46:23.000Z,5.8
2023-01-31T04:49:56.000Z,6
2023-01-31T04:53:28.000Z,5.3
2023-01-31T04:57:01.000Z,5.1
2023-01-31T05:00:34.000Z,5.5
2023-01-31T05:04:07.000Z,5.1
2023-01-31T05:06:58.000Z,4.8
2023-01-31T05:10:31.000Z,5
2023-01-31T05:14:04.000Z,4.2
2023-01-31T05:17:36.000Z,5.5
2023-01-31T05:21:09.000Z,4.5
2023-01-31T05:24:41.000Z,3.7
2023-01-31T05:28:14.000Z,4.1
2023-01-31T05:31:47.000Z,3.9
2023-01-31T05:35:20.000Z,4.1
2023-01-31T05:38:52.000Z,4.3
2023-01-31T05:42:25.000Z,3.7
2023-01-31T05:45:16.000Z,4.1
2023-01-31T05:48:48.000Z,4.4
2023-01-31T05:52:21.000Z,3.8
2023-01-31T05:55:54.000Z,4.1
2023-01-31T05:59:26.000Z,3.5
2023-01-31T06:02:59.000Z,3.8
2023-01-31T06:06:32.000Z,3.9
2023-01-31T06:10:05.000Z,3.6
2023-01-31T06:13:37.000Z,3.2
2023-01-31T06:17:10.000Z,3.8
2023-01-31T06:20:42.000Z,4.5
2023-01-31T06:23:34.000Z,4
2023-01-31T06:27:06.000Z,3.5
2023-01-31T06:30:39.000Z,4.5
2023-01-31T06:34:12.000Z,4.8
2023-01-31T06:37:44.000Z,4.2
2023-01-31T06:41:17.000Z,3.9
2023-01-31T06:44:50.000Z,3.5
2023-01-31T06:48:22.000Z,3.9
2023-01-31T06:51:55.000Z,4.4
2023-01-31T06:55:28.000Z,3.7
2023-01-31T06:59:00.000Z,3.7
2023-01-31T07:01:52.000Z,3.6
2023-01-31T07:05:24.000Z,3.7
2023-01-31T07:08:57.000Z,3.9
2023-01-31T07:12:30.000Z,3.4
2023-01-31T07:16:02.000Z,4.1
2023-01-31T07:19:35.000Z,4.3
2023-01-31T07:23:08.000Z,7.5
2023-01-31T07:26:40.000Z,5.8
2023-01-31T07:30:13.000Z,4.9
2023-01-31T07:33:46.000Z,4.7
2023-01-31T07:37:19.000Z,5.4
2023-01-31T07:40:10.000Z,5.8
2023-01-31T07:43:43.000Z,4.9
2023-01-31T07:47:32.000Z,4.6
2023-01-31T07:51:05.000Z,4.7
2023-01-31T07:54:38.000Z,4.4
2023-01-31T07:58:10.000Z,4.6
2023-01-31T08:01:43.000Z,4.6
2023-01-31T08:05:16.000Z,4.2
2023-01-31T08:08:49.000Z,4.5
2023-01-31T08:12:22.000Z,4.7
2023-01-31T08:15:54.000Z,4.8
2023-01-31T08:18:45.000Z,5.1
2023-01-31T08:22:18.000Z,5
2023-01-31T08:25:51.000Z,4.9
2023-01-31T08:29:23.000Z,4.7
2023-01-31T08:33:07.000Z,4.9
2023-01-31T08:36:40.000Z,5.4
2023-01-31T08:40:15.000Z,6.1
2023-01-31T08:43:48.000Z,5.3
2023-01-31T08:47:23.000Z,5.3
2023-01-31T08:50:56.000Z,5.7
2023-01-31T08:54:29.000Z,5.3
2023-01-31T08:57:20.000Z,5.4
2023-01-31T09:00:52.000Z,5.5
2023-01-31T09:04:25.000Z,6.7
2023-01-31T09:07:58.000Z,5.9
2023-01-31T09:11:31.000Z,5.6
2023-01-31T09:15:04.000Z,5.9
2023-01-31T09:18:37.000Z,5.7
2023-01-31T09:22:10.000Z,7
2023-01-31T09:25:43.000Z,7.2
2023-01-31T09:29:16.000Z,6.5
2023-01-31T09:32:48.000Z,6.3
2023-01-31T09:35:39.000Z,6.4
2023-01-31T09:39:12.000Z,6.5
2023-01-31T09:42:44.000Z,6.4
2023-01-31T09:46:17.000Z,6.3
2023-01-31T09:49:50.000Z,6.6
2023-01-31T09:53:22.000Z,14.1
2023-01-31T09:56:55.000Z,7.9
2023-01-31T10:00:28.000Z,8.9
2023-01-31T10:04:00.000Z,7.7
2023-01-31T10:07:33.000Z,8.3
2023-01-31T10:11:06.000Z,6.3
2023-01-31T10:13:57.000Z,7.6
2023-01-31T10:17:30.000Z,6.1
2023-01-31T10:21:02.000Z,6.8
2023-01-31T10:24:35.000Z,6.5
2023-01-31T10:28:10.000Z,6.7
2023-01-31T10:31:43.000Z,6.7
2023-01-31T10:35:15.000Z,6.5
2023-01-31T10:38:48.000Z,6.7
2023-01-31T10:42:21.000Z,6.5
2023-01-31T10:45:54.000Z,7.9
2023-01-31T10:49:27.000Z,7
2023-01-31T10:52:18.000Z,7.3
2023-01-31T10:55:50.000Z,7.1
2023-01-31T10:59:23.000Z,7.2
2023-01-31T11:02:56.000Z,8.1
2023-01-31T11:06:28.000Z,7.7
2023-01-31T11:10:01.000Z,8.3
2023-01-31T11:13:34.000Z,9.2
2023-01-31T11:17:06.000Z,9.3
2023-01-31T11:20:39.000Z,9.5
2023-01-31T11:24:11.000Z,9.9
2023-01-31T11:27:44.000Z,8.8
2023-01-31T11:30:35.000Z,9.7
2023-01-31T11:34:08.000Z,9.9
2023-01-31T11:37:41.000Z,10.4
2023-01-31T11:41:19.000Z,10.2
2023-01-31T11:44:51.000Z,10.1
2023-01-31T11:48:24.000Z,10.8
2023-01-31T11:51:57.000Z,10.6
2023-01-31T11:55:29.000Z,11.2
2023-01-31T11:59:02.000Z,10.3
2023-01-31T12:02:35.000Z,9.9
2023-01-31T12:06:08.000Z,10.6
2023-01-31T12:08:59.000Z,11.3
2023-01-31T12:12:32.000Z,11.2
2023-01-31T12:16:04.000Z,10.8
2023-01-31T12:19:37.000Z,10.4
2023-01-31T12:23:09.000Z,10.2
2023-01-31T12:26:42.000Z,9.8
2023-01-31T12:30:15.000Z,10.8
2023-01-31T12:33:48.000Z,13
2023-01-31T12:37:21.000Z,12.3
2023-01-31T12:40:54.000Z,12.2
2023-01-31T12:44:26.000Z,10.8
2023-01-31T12:47:17.000Z,10.2
2023-01-31T12:50:50.000Z,9.6
2023-01-31T12:54:23.000Z,10
2023-01-31T12:57:55.000Z,10
2023-01-31T13:01:30.000Z,9.5
2023-01-31T13:05:03.000Z,10.1
2023-01-31T13:08:35.000Z,9.4
2023-01-31T13:12:22.000Z,10.7
2023-01-31T13:15:54.000Z,10.6
2023-01-31T13:19:27.000Z,10.2
2023-01-31T13:23:00.000Z,10.6
2023-01-31T13:25:51.000Z,10.2
2023-01-31T13:29:23.000Z,10.7
2023-01-31T13:32:56.000Z,10.9
2023-01-31T13:36:29.000Z,10.3
2023-01-31T13:40:02.000Z,11.6
2023-01-31T13:43:34.000Z,9.4
2023-01-31T13:47:07.000Z,9.5
2023-01-31T13:50:40.000Z,10.1
2023-01-31T13:54:12.000Z,8.9
2023-01-31T13:57:45.000Z,10
2023-01-31T14:01:18.000Z,9.2
2023-01-31T14:04:09.000Z,8.1
2023-01-31T14:07:42.000Z,9.1
2023-01-31T14:11:14.000Z,8.4
2023-01-31T14:14:47.000Z,8.6
2023-01-31T14:18:20.000Z,8.8
2023-01-31T14:21:52.000Z,8.4
2023-01-31T14:25:25.000Z,7.5
2023-01-31T14:28:58.000Z,7.8
2023-01-31T14:32:30.000Z,7.5
2023-01-31T14:36:03.000Z,6.5
2023-01-31T14:39:36.000Z,5.9
2023-01-31T14:42:27.000Z,6.6
2023-01-31T14:45:59.000Z,5.6
2023-01-31T14:49:32.000Z,5.9
2023-01-31T14:53:05.000Z,5.3
2023-01-31T14:56:38.000Z,5.8
2023-01-31T15:00:10.000Z,5.5
2023-01-31T15:03:43.000Z,5.3
2023-01-31T15:07:15.000Z,6.5
2023-01-31T15:10:48.000Z,5.6
2023-01-31T15:14:21.000Z,6.5
2023-01-31T15:18:00.000Z,5.4
2023-01-31T15:20:51.000Z,5.1
2023-01-31T15:24:24.000Z,5.8
2023-01-31T15:27:56.000Z,5.4
2023-01-31T15:31:29.000Z,5.2
2023-01-31T15:35:02.000Z,5.1
2023-01-31T15:38:35.000Z,5.1
2023-01-31T15:42:07.000Z,5.4
2023-01-31T15:45:40.000Z,4.5
2023-01-31T15:49:13.000Z,5.7
2023-01-31T15:55:09.000Z,5.3
2023-01-31T15:58:42.000Z,6.4
2023-01-31T16:01:27.000Z,6.3
2023-01-31T16:05:00.000Z,7.1
2023-01-31T16:08:33.000Z,7.2
2023-01-31T16:12:05.000Z,7
2023-01-31T16:15:38.000Z,7.4
2023-01-31T16:19:11.000Z,6.7
2023-01-31T16:22:43.000Z,7.2
2023-01-31T16:26:16.000Z,7.7
2023-01-31T16:29:49.000Z,7.5
2023-01-31T16:33:24.000Z,6.9
2023-01-31T16:36:57.000Z,8.2
2023-01-31T16:39:48.000Z,7.7
2023-01-31T16:43:21.000Z,8.1
2023-01-31T16:46:53.000Z,7
2023-01-31T16:50:26.000Z,6.4
2023-01-31T16:54:08.000Z,6.3
2023-01-31T16:57:41.000Z,5.8
2023-01-31T17:01:14.000Z,5.9
2023-01-31T17:04:46.000Z,6.1
2023-01-31T17:08:19.000Z,6.4
2023-01-31T17:11:52.000Z,6.8
2023-01-31T17:15:24.000Z,6.5
2023-01-31T17:18:15.000Z,5.7
2023-01-31T17:21:48.000Z,5.6
2023-01-31T17:25:21.000Z,7.2
2023-01-31T17:28:53.000Z,6.8
2023-01-31T17:32:27.000Z,6.3
2023-01-31T17:36:00.000Z,5.4
2023-01-31T17:39:33.000Z,5.5
2023-01-31T17:43:05.000Z,5.4
2023-01-31T17:46:38.000Z,4.8
2023-01-31T17:50:23.000Z,5.3
2023-01-31T17:53:56.000Z,5.3
2023-01-31T17:56:47.000Z,5.7
2023-01-31T18:00:19.000Z,4.9
2023-01-31T18:03:52.000Z,5.6
2023-01-31T18:07:37.000Z,5.9
2023-01-31T18:11:10.000Z,6
2023-01-31T18:14:42.000Z,6.2
2023-01-31T18:18:15.000Z,6.2
2023-01-31T18:21:48.000Z,7
2023-01-31T18:25:20.000Z,6.7
2023-01-31T18:28:53.000Z,5.8
2023-01-31T18:32:26.000Z,5.9
2023-01-31T18:35:17.000Z,6
2023-01-31T18:38:50.000Z,5.7
2023-01-31T18:42:22.000Z,5.7
2023-01-31T18:45:55.000Z,6
2023-01-31T18:49:27.000Z,6.3
2023-01-31T18:53:00.000Z,5
2023-01-31T18:56:32.000Z,5.5
2023-01-31T19:00:05.000Z,4.3
2023-01-31T19:03:41.000Z,3.6
2023-01-31T19:07:14.000Z,3.2
2023-01-31T19:10:46.000Z,3
2023-01-31T19:13:38.000Z,3.9
2023-01-31T19:17:11.000Z,4.4
2023-01-31T19:20:43.000Z,4.6
2023-01-31T19:24:16.000Z,5
2023-01-31T19:27:48.000Z,5.7
2023-01-31T19:31:21.000Z,5.4
2023-01-31T19:34:54.000Z,5.4
2023-01-31T19:38:27.000Z,7.7
2023-01-31T19:41:59.000Z,5.5
2023-01-31T19:45:32.000Z,6.3
2023-01-31T19:49:05.000Z,5.9
2023-01-31T19:51:56.000Z,5.8
2023-01-31T19:55:29.000Z,5.3
2023-01-31T19:59:01.000Z,5.2
2023-01-31T20:02:34.000Z,5.5
2023-01-31T20:06:06.000Z,5.3
2023-01-31T20:09:39.000Z,6.6
2023-01-31T20:13:12.000Z,6.1
2023-01-31T20:16:47.000Z,6.7
2023-01-31T20:20:20.000Z,6.3
2023-01-31T20:23:52.000Z,7
2023-01-31T20:27:25.000Z,8.1
2023-01-31T20:30:16.000Z,7.3
2023-01-31T20:33:49.000Z,8.8
2023-01-31T20:37:21.000Z,10.1
2023-01-31T20:40:54.000Z,9.1
2023-01-31T20:44:30.000Z,8.1
2023-01-31T20:48:02.000Z,9.1
2023-01-31T20:51:35.000Z,8.4
2023-01-31T20:55:08.000Z,9.2
2023-01-31T20:58:41.000Z,8.6
2023-01-31T21:02:14.000Z,8.7
2023-01-31T21:05:47.000Z,13.3
2023-01-31T21:08:38.000Z,9.9
2023-01-31T21:12:13.000Z,9.5
2023-01-31T21:15:46.000Z,9.9
2023-01-31T21:19:29.000Z,11.8
2023-01-31T21:23:02.000Z,11.6
2023-01-31T21:26:34.000Z,10.4
2023-01-31T21:30:07.000Z,11
2023-01-31T21:33:40.000Z,10.6
2023-01-31T21:37:12.000Z,11.1
2023-01-31T21:40:45.000Z,12.5
2023-01-31T21:44:18.000Z,13.7
2023-01-31T21:47:09.000Z,12
2023-01-31T21:50:41.000Z,10.4
2023-01-31T21:54:14.000Z,11.4
2023-01-31T21:57:47.000Z,10.4
2023-01-31T22:01:19.000Z,10.7
2023-01-31T22:04:52.000Z,10.5
2023-01-31T22:08:25.000Z,10.4
2023-01-31T22:11:57.000Z,10
2023-01-31T22:15:30.000Z,10.3
2023-01-31T22:19:03.000Z,9.4
2023-01-31T22:22:36.000Z,8.5
2023-01-31T22:25:26.000Z,8.7
2023-01-31T22:28:59.000Z,8.8
2023-01-31T22:32:32.000Z,8.7
2023-01-31T22:36:05.000Z,9.5
2023-01-31T22:39:37.000Z,9.8
2023-01-31T22:43:10.000Z,9.8
2023-01-31T22:46:43.000Z,10
2023-01-31T22:50:15.000Z,9.4
2023-01-31T22:53:48.000Z,9.5
2023-01-31T22:57:21.000Z,9.1
2023-01-31T23:00:54.000Z,10
2023-01-31T23:03:45.000Z,11.4
2023-01-31T23:07:17.000Z,9.7
2023-01-31T23:10:50.000Z,9.5
2023-01-31T23:14:23.000Z,10
2023-01-31T23:17:55.000Z,8.1
2023-01-31T23:21:28.000Z,6.5
2023-01-31T23:25:01.000Z,5.9
2023-01-31T23:28:34.000Z,4.9
2023-01-31T23:32:06.000Z,4.2
2023-01-31T23:35:39.000Z,3.2
2023-01-31T23:39:11.000Z,3.2
2023-01-31T23:42:02.000Z,3.3
2023-01-31T23:45:35.000Z,3.5
2023-01-31T23:49:08.000Z,3.8
2023-01-31T23:52:40.000Z,3.8
2023-01-31T23:56:13.000Z,3.9
2023-01-31T23:59:45.000Z,5.6
